createdAt,value
2022-12-15T00:02:40.865Z,98902.56
2022-12-15T00:05:27.816Z,98889.72
2022-12-15T00:08:13.928Z,98902.47
2022-12-15T00:11:00.191Z,98903.87
2022-12-15T00:13:46.088Z,98909.50
2022-12-15T00:16:32.674Z,98915.16
2022-12-15T00:19:18.539Z,98918.87
2022-12-15T00:22:05.133Z,98909.25
2022-12-15T00:24:51.342Z,98925.56
2022-12-15T00:27:37.891Z,98924.00
2022-12-15T00:30:25.327Z,98912.69
2022-12-15T00:33:11.742Z,98912.31
2022-12-15T00:35:57.561Z,98920.09
2022-12-15T00:38:41.610Z,98926.78
2022-12-15T00:41:09.500Z,98932.47
2022-12-15T00:43:37.751Z,98945.50
2022-12-15T00:46:24.281Z,98940.13
2022-12-15T00:48:52.109Z,98934.56
2022-12-15T00:51:19.784Z,98924.88
2022-12-15T00:54:06.387Z,98930.62
2022-12-15T00:56:54.384Z,98928.31
2022-12-15T00:59:40.610Z,98910.66
2022-12-15T01:02:26.726Z,98912.75
2022-12-15T01:05:13.118Z,98904.37
2022-12-15T01:07:59.485Z,98914.09
2022-12-15T01:10:45.824Z,98912.69
2022-12-15T01:13:32.977Z,98926.28
2022-12-15T01:16:19.558Z,98924.78
2022-12-15T01:19:06.914Z,98940.59
2022-12-15T01:21:34.261Z,98936.63
2022-12-15T01:24:01.909Z,98927.16
2022-12-15T01:26:29.256Z,98931.75
2022-12-15T01:28:58.699Z,98924.88
2022-12-15T01:31:26.398Z,98930.19
2022-12-15T01:33:54.914Z,98922.91
2022-12-15T01:36:22.317Z,98925.22
2022-12-15T01:38:54.057Z,98930.44
2022-12-15T01:41:22.537Z,98933.53
2022-12-15T01:43:50.226Z,98930.69
2022-12-15T01:46:19.503Z,98927.44
2022-12-15T01:48:48.332Z,98924.00
2022-12-15T01:51:31.185Z,98922.75
2022-12-15T01:54:03.884Z,98933.72
2022-12-15T01:56:37.668Z,98928.03
2022-12-15T01:59:08.139Z,98927.44
2022-12-15T02:01:36.128Z,98930.00
2022-12-15T02:04:04.023Z,98931.88
2022-12-15T02:06:31.813Z,98943.41
2022-12-15T02:09:00.159Z,98922.69
2022-12-15T02:12:21.445Z,98924.34
2022-12-15T02:15:09.415Z,98929.81
2022-12-15T02:18:07.432Z,98938.28
2022-12-15T02:20:59.599Z,98943.16
2022-12-15T02:23:51.254Z,98949.44
2022-12-15T02:26:42.690Z,98955.53
2022-12-15T02:29:37.579Z,98954.28
2022-12-15T02:32:22.235Z,98947.50
2022-12-15T02:34:57.864Z,98943.44
2022-12-15T02:37:31.331Z,98933.16
2022-12-15T02:39:58.982Z,98935.22
2022-12-15T02:42:29.168Z,98927.66
2022-12-15T02:45:07.290Z,98934.09
2022-12-15T02:47:57.119Z,98944.31
2022-12-15T02:51:05.934Z,98950.53
2022-12-15T02:54:07.556Z,98962.66
2022-12-15T02:56:44.284Z,98940.06
2022-12-15T02:59:24.447Z,98946.34
2022-12-15T03:01:55.632Z,98948.63
2022-12-15T03:04:23.524Z,98940.59
2022-12-15T03:07:01.134Z,98943.59
2022-12-15T03:09:29.126Z,98947.16
2022-12-15T03:11:56.660Z,98956.13
2022-12-15T03:14:25.556Z,98952.06
2022-12-15T03:16:53.994Z,98956.94
2022-12-15T03:19:21.425Z,98957.00
2022-12-15T03:21:48.792Z,98958.03
2022-12-15T03:24:16.431Z,98949.00
2022-12-15T03:26:44.215Z,98946.44
2022-12-15T03:29:11.540Z,98953.31
2022-12-15T03:31:39.190Z,98953.69
2022-12-15T03:34:06.554Z,98967.72
2022-12-15T03:36:34.097Z,98971.59
2022-12-15T03:39:01.740Z,98960.56
2022-12-15T03:41:29.164Z,98962.31
2022-12-15T03:43:56.514Z,98960.16
2022-12-15T03:46:24.213Z,98957.84
2022-12-15T03:48:51.521Z,98966.75
2022-12-15T03:51:19.241Z,98971.34
2022-12-15T03:53:49.908Z,98974.88
2022-12-15T03:56:17.887Z,98975.09
2022-12-15T03:58:45.274Z,98978.34
2022-12-15T04:01:29.463Z,98974.22
2022-12-15T04:04:00.863Z,98983.47
2022-12-15T04:06:30.113Z,98978.56
2022-12-15T04:08:58.715Z,98979.66
2022-12-15T04:11:26.107Z,98991.44
2022-12-15T04:13:53.484Z,98993.41
2022-12-15T04:16:21.296Z,99000.09
2022-12-15T04:19:11.560Z,99005.38
2022-12-15T04:21:39.212Z,99008.13
2022-12-15T04:24:25.594Z,99011.75
2022-12-15T04:27:11.647Z,99012.53
2022-12-15T04:29:57.593Z,99009.78
2022-12-15T04:32:43.748Z,99012.44
2022-12-15T04:35:30.255Z,99023.06
2022-12-15T04:38:16.776Z,99023.28
2022-12-15T04:41:02.760Z,99029.22
2022-12-15T04:43:48.776Z,99031.41
2022-12-15T04:46:34.918Z,99050.13
2022-12-15T04:49:21.047Z,99060.91
2022-12-15T04:52:06.860Z,99069.75
2022-12-15T04:54:53.504Z,99068.41
2022-12-15T04:57:39.452Z,99064.47
2022-12-15T05:00:26.250Z,99067.31
2022-12-15T05:03:17.948Z,99068.31
2022-12-15T05:06:04.399Z,99079.72
2022-12-15T05:08:50.517Z,99085.13
2022-12-15T05:11:36.884Z,99087.59
2022-12-15T05:14:22.869Z,99085.50
2022-12-15T05:17:08.951Z,99093.28
2022-12-15T05:19:55.085Z,99086.41
2022-12-15T05:22:41.499Z,99084.16
2022-12-15T05:25:27.474Z,99081.50
2022-12-15T05:28:13.821Z,99080.31
2022-12-15T05:30:59.807Z,99102.09
2022-12-15T05:33:27.726Z,99111.56
2022-12-15T05:35:58.301Z,99098.72
2022-12-15T05:38:25.769Z,99102.53
2022-12-15T05:40:53.401Z,99105.00
2022-12-15T05:43:26.223Z,99106.88
2022-12-15T05:45:54.308Z,99106.50
2022-12-15T05:48:21.718Z,99117.78
2022-12-15T05:50:50.570Z,99117.87
2022-12-15T05:53:18.241Z,99136.50
2022-12-15T05:55:45.581Z,99142.88
2022-12-15T05:58:13.006Z,99141.13
2022-12-15T06:00:40.705Z,99145.81
2022-12-15T06:03:08.375Z,99155.87
2022-12-15T06:05:35.791Z,99164.53
2022-12-15T06:08:03.137Z,99162.94
2022-12-15T06:10:30.809Z,99177.69
2022-12-15T06:12:58.170Z,99190.50
2022-12-15T06:15:25.535Z,99189.31
2022-12-15T06:17:55.782Z,99184.13
2022-12-15T06:20:23.169Z,99192.09
2022-12-15T06:22:50.523Z,99188.66
2022-12-15T06:25:18.167Z,99180.75
2022-12-15T06:27:45.528Z,99193.44
2022-12-15T06:30:13.548Z,99199.38
2022-12-15T06:32:41.307Z,99198.38
2022-12-15T06:35:08.681Z,99197.09
2022-12-15T06:37:36.066Z,99188.41
2022-12-15T06:40:03.955Z,99185.47
2022-12-15T06:42:31.307Z,99194.53
2022-12-15T06:44:58.693Z,99200.53
2022-12-15T06:47:27.114Z,99190.81
2022-12-15T06:49:55.392Z,99199.16
2022-12-15T06:52:22.759Z,99200.53
2022-12-15T06:54:50.556Z,99212.34
2022-12-15T06:57:17.938Z,99221.81
2022-12-15T06:59:45.416Z,99230.87
2022-12-15T07:02:22.458Z,99230.25
2022-12-15T07:04:53.054Z,99237.84
2022-12-15T07:07:20.857Z,99252.91
2022-12-15T07:09:48.307Z,99268.28
2022-12-15T07:12:15.644Z,99276.16
2022-12-15T07:14:44.241Z,99275.84
2022-12-15T07:17:13.830Z,99278.28
2022-12-15T07:19:41.384Z,99270.22
2022-12-15T07:22:09.491Z,99270.81
2022-12-15T07:24:37.091Z,99280.28
2022-12-15T07:27:04.547Z,99268.25
2022-12-15T07:29:32.269Z,99262.53
2022-12-15T07:32:01.126Z,99266.69
2022-12-15T07:34:28.556Z,99267.69
2022-12-15T07:36:56.210Z,99290.22
2022-12-15T07:39:24.530Z,99294.50
2022-12-15T07:41:52.002Z,99283.44
2022-12-15T07:44:19.824Z,99291.69
2022-12-15T07:46:49.356Z,99291.09
2022-12-15T07:49:17.740Z,99287.53
2022-12-15T07:51:45.380Z,99280.88
2022-12-15T07:54:13.802Z,99289.31
2022-12-15T07:56:41.375Z,99292.06
2022-12-15T07:59:09.899Z,99295.72
2022-12-15T08:01:37.612Z,99300.56
2022-12-15T08:04:06.159Z,99306.06
2022-12-15T08:06:34.114Z,99306.59
2022-12-15T08:09:01.849Z,99299.84
2022-12-15T08:11:34.078Z,99312.72
2022-12-15T08:14:03.670Z,99317.38
2022-12-15T08:16:34.533Z,99326.72
2022-12-15T08:19:03.660Z,99325.69
2022-12-15T08:21:31.799Z,99340.13
2022-12-15T08:24:00.992Z,99331.41
2022-12-15T08:26:30.593Z,99342.75
2022-12-15T08:29:31.824Z,99337.34
2022-12-15T08:31:51.742Z,99332.72
2022-12-15T08:34:19.679Z,99337.50
2022-12-15T08:36:47.119Z,99338.84
2022-12-15T08:39:14.484Z,99329.31
2022-12-15T08:41:42.469Z,99341.59
2022-12-15T08:44:10.101Z,99343.19
2022-12-15T08:46:37.642Z,99343.31
2022-12-15T08:49:05.454Z,99354.84
2022-12-15T08:51:33.433Z,99360.63
2022-12-15T08:54:01.627Z,99364.91
2022-12-15T08:56:29.413Z,99374.00
2022-12-15T08:59:01.645Z,99370.81
2022-12-15T09:01:32.351Z,99369.41
2022-12-15T09:04:01.548Z,99375.75
2022-12-15T09:06:31.525Z,99380.12
2022-12-15T09:09:00.968Z,99373.59
2022-12-15T09:11:29.791Z,99366.03
2022-12-15T09:13:57.665Z,99375.97
2022-12-15T09:16:25.660Z,99362.22
2022-12-15T09:18:56.631Z,99366.72
2022-12-15T09:21:26.700Z,99361.66
2022-12-15T09:23:57.703Z,99355.59
2022-12-15T09:26:25.080Z,99358.53
2022-12-15T09:28:53.128Z,99351.00
2022-12-15T09:31:23.914Z,99350.28
2022-12-15T09:33:53.108Z,99352.03
2022-12-15T09:36:21.145Z,99351.53
2022-12-15T09:38:48.849Z,99347.16
2022-12-15T09:41:28.046Z,99360.41
2022-12-15T09:43:58.694Z,99356.06
2022-12-15T09:46:54.460Z,99359.69
2022-12-15T09:49:55.591Z,99363.13
2022-12-15T09:52:26.673Z,99371.38
2022-12-15T09:54:54.787Z,99370.75
2022-12-15T09:57:41.044Z,99366.25
2022-12-15T10:00:15.671Z,99385.72
2022-12-15T10:02:55.991Z,99387.22
2022-12-15T10:05:50.110Z,99390.53
2022-12-15T10:08:17.198Z,99388.94
2022-12-15T10:10:57.859Z,99385.88
2022-12-15T10:13:38.377Z,99380.59
2022-12-15T10:16:16.967Z,99375.00
2022-12-15T10:19:07.505Z,99384.66
2022-12-15T10:21:36.423Z,99390.47
2022-12-15T10:24:26.633Z,99374.72
2022-12-15T10:27:18.570Z,99372.53
2022-12-15T10:30:02.412Z,99365.34
2022-12-15T10:32:51.448Z,99361.16
2022-12-15T10:35:28.637Z,99349.62
2022-12-15T10:38:04.334Z,99353.56
2022-12-15T10:40:58.852Z,99338.41
2022-12-15T10:43:37.186Z,99351.91
2022-12-15T10:46:25.889Z,99362.66
2022-12-15T10:49:00.724Z,99369.25
2022-12-15T10:51:33.392Z,99357.81
2022-12-15T10:54:00.624Z,99352.22
2022-12-15T10:56:33.750Z,99349.25
2022-12-15T10:59:30.798Z,99347.16
2022-12-15T11:02:23.801Z,99342.28
2022-12-15T11:04:59.751Z,99353.25
2022-12-15T11:07:33.621Z,99357.09
2022-12-15T11:10:08.241Z,99360.84
2022-12-15T11:12:52.267Z,99365.28
2022-12-15T11:15:22.705Z,99371.44
2022-12-15T11:17:56.445Z,99359.13
2022-12-15T11:20:29.281Z,99367.25
2022-12-15T11:23:09.458Z,99371.09
2022-12-15T11:25:42.245Z,99358.00
2022-12-15T11:28:15.720Z,99356.97
2022-12-15T11:30:46.649Z,99359.94
2022-12-15T11:33:14.613Z,99359.00
2022-12-15T11:36:20.819Z,99361.72
2022-12-15T11:39:13.501Z,99355.53
2022-12-15T11:41:56.556Z,99363.84
2022-12-15T11:44:35.328Z,99358.25
2022-12-15T11:47:20.742Z,99372.00
2022-12-15T11:49:53.191Z,99375.56
2022-12-15T11:52:39.776Z,99383.16
2022-12-15T11:55:13.657Z,99382.81
2022-12-15T11:58:19.334Z,99388.75
2022-12-15T12:01:23.463Z,99383.28
2022-12-15T12:04:20.827Z,99384.44
2022-12-15T12:06:57.451Z,99388.03
2022-12-15T12:09:35.265Z,99377.69
2022-12-15T12:12:29.530Z,99378.34
2022-12-15T12:15:12.996Z,99366.94
2022-12-15T12:17:41.748Z,99368.47
2022-12-15T12:20:17.836Z,99376.41
2022-12-15T12:23:06.108Z,99373.97
2022-12-15T12:25:40.205Z,99368.56
2022-12-15T12:28:17.435Z,99376.59
2022-12-15T12:30:48.742Z,99369.69
2022-12-15T12:33:36.884Z,99355.94
2022-12-15T12:36:13.004Z,99361.31
2022-12-15T12:38:46.317Z,99353.75
2022-12-15T12:41:24.683Z,99353.37
2022-12-15T12:43:55.711Z,99361.59
2022-12-15T12:46:27.683Z,99346.81
2022-12-15T12:48:57.657Z,99355.72
2022-12-15T12:51:25.586Z,99363.84
2022-12-15T12:53:53.414Z,99357.41
2022-12-15T12:56:36.977Z,99358.75
2022-12-15T12:59:26.364Z,99368.66
2022-12-15T13:01:56.256Z,99367.91
2022-12-15T13:04:30.216Z,99364.78
2022-12-15T13:07:01.468Z,99381.53
2022-12-15T13:09:43.103Z,99373.56
2022-12-15T13:15:30.932Z,99383.37
2022-12-15T13:18:06.700Z,99387.44
2022-12-15T13:20:36.874Z,99386.03
2022-12-15T13:23:16.608Z,99385.50
2022-12-15T13:25:51.858Z,99388.00
2022-12-15T13:28:27.195Z,99384.09
2022-12-15T13:31:23.442Z,99373.75
2022-12-15T13:33:51.324Z,99385.31
2022-12-15T13:36:37.352Z,99396.72
2022-12-15T13:39:24.711Z,99392.22
2022-12-15T13:42:32.583Z,99397.22
2022-12-15T13:44:51.868Z,99399.53
2022-12-15T13:47:25.228Z,99397.63
2022-12-15T13:53:17.780Z,99380.41
2022-12-15T13:55:39.227Z,99394.66
2022-12-15T13:58:16.495Z,99392.28
2022-12-15T14:00:55.184Z,99403.44
2022-12-15T14:03:23.997Z,99401.16
2022-12-15T14:05:56.921Z,99399.19
2022-12-15T14:08:28.925Z,99392.28
2022-12-15T14:10:59.088Z,99388.94
2022-12-15T14:13:32.145Z,99381.75
2022-12-15T14:16:17.902Z,99392.53
2022-12-15T14:18:45.922Z,99388.22
2022-12-15T14:21:23.006Z,99392.28
2022-12-15T14:24:36.517Z,99388.38
2022-12-15T14:26:38.402Z,99380.78
2022-12-15T14:29:06.486Z,99372.78
2022-12-15T14:31:33.939Z,99367.41
2022-12-15T14:34:08.083Z,99373.12
2022-12-15T14:36:36.122Z,99367.13
2022-12-15T14:39:06.958Z,99382.88
2022-12-15T14:41:40.713Z,99384.66
2022-12-15T14:44:38.122Z,99385.00
2022-12-15T14:47:09.005Z,99395.81
2022-12-15T14:49:41.340Z,99397.78
2022-12-15T14:52:28.632Z,99400.81
2022-12-15T14:54:58.001Z,99399.91
2022-12-15T14:57:41.587Z,99398.94
2022-12-15T15:00:32.155Z,99423.09
2022-12-15T15:03:09.801Z,99387.59
2022-12-15T15:03:12.979Z,99379.81
2022-12-15T15:03:19.070Z,99405.75
2022-12-15T15:05:50.330Z,99397.44
2022-12-15T15:08:33.943Z,99419.56
2022-12-15T15:11:29.810Z,99412.50
2022-12-15T15:14:00.550Z,99420.03
2022-12-15T15:16:28.518Z,99413.38
2022-12-15T15:18:56.487Z,99421.50
2022-12-15T15:21:26.130Z,99403.38
2022-12-15T15:24:04.115Z,99394.16
2022-12-15T15:26:31.714Z,99390.69
2022-12-15T15:28:59.559Z,99391.28
2022-12-15T15:31:41.344Z,99400.25
2022-12-15T15:34:09.628Z,99389.31
2022-12-15T15:36:38.589Z,99388.38
2022-12-15T15:39:15.729Z,99380.22
2022-12-15T15:41:43.426Z,99377.84
2022-12-15T15:44:15.497Z,99385.03
2022-12-15T15:46:52.105Z,99391.34
2022-12-15T15:49:20.830Z,99378.78
2022-12-15T15:51:49.653Z,99377.69
2022-12-15T15:54:19.085Z,99378.00
2022-12-15T15:56:46.446Z,99376.66
2022-12-15T15:59:16.411Z,99376.28
2022-12-15T16:01:46.570Z,99382.47
2022-12-15T16:04:14.800Z,99367.38
2022-12-15T16:06:47.000Z,99368.50
2022-12-15T16:09:16.809Z,99373.22
2022-12-15T16:11:45.113Z,99375.63
2022-12-15T16:14:14.240Z,99377.56
2022-12-15T16:16:42.153Z,99375.59
2022-12-15T16:19:09.688Z,99379.88
2022-12-15T16:21:37.276Z,99375.25
2022-12-15T16:24:09.076Z,99374.63
2022-12-15T16:26:38.913Z,99367.31
2022-12-15T16:29:14.594Z,99358.56
2022-12-15T16:31:45.435Z,99367.97
2022-12-15T16:34:19.246Z,99373.19
2022-12-15T16:36:46.972Z,99378.09
2022-12-15T16:39:26.673Z,99382.34
2022-12-15T16:41:55.204Z,99386.22
2022-12-15T16:44:24.492Z,99383.97
2022-12-15T16:46:52.395Z,99381.91
2022-12-15T16:49:20.445Z,99391.13
2022-12-15T16:51:50.848Z,99381.53
2022-12-15T16:54:21.694Z,99388.41
2022-12-15T16:56:49.713Z,99405.47
2022-12-15T16:59:35.284Z,99410.31
2022-12-15T17:02:28.468Z,99413.44
2022-12-15T17:04:56.283Z,99414.78
2022-12-15T17:07:25.367Z,99416.03
2022-12-15T17:09:52.876Z,99422.53
2022-12-15T17:12:20.351Z,99423.53
2022-12-15T17:14:48.376Z,99406.28
2022-12-15T17:17:17.653Z,99408.06
2022-12-15T17:20:11.822Z,99404.91
2022-12-15T17:22:33.547Z,99400.59
2022-12-15T17:25:01.566Z,99412.47
2022-12-15T17:27:29.836Z,99401.91
2022-12-15T17:29:58.487Z,99406.37
2022-12-15T17:32:28.883Z,99415.25
2022-12-15T17:34:56.672Z,99412.03
2022-12-15T17:37:30.550Z,99420.59
2022-12-15T17:40:04.454Z,99409.91
2022-12-15T17:42:32.874Z,99410.91
2022-12-15T17:45:00.518Z,99423.97
2022-12-15T17:47:30.653Z,99425.66
2022-12-15T17:49:58.907Z,99414.06
2022-12-15T17:52:29.248Z,99410.88
2022-12-15T17:54:58.208Z,99405.19
2022-12-15T17:57:26.200Z,99412.50
2022-12-15T17:59:53.764Z,99406.37
2022-12-15T18:02:21.240Z,99404.38
2022-12-15T18:04:49.572Z,99400.78
2022-12-15T18:07:22.150Z,99407.19
2022-12-15T18:09:51.689Z,99416.28
2022-12-15T18:12:26.343Z,99404.59
2022-12-15T18:14:55.761Z,99397.63
2022-12-15T18:17:24.626Z,99394.19
2022-12-15T18:19:56.429Z,99399.09
2022-12-15T18:22:24.910Z,99396.78
2022-12-15T18:24:54.099Z,99398.28
2022-12-15T18:27:30.868Z,99406.28
2022-12-15T18:29:59.009Z,99404.81
2022-12-15T18:32:27.558Z,99411.69
2022-12-15T18:34:55.452Z,99396.22
2022-12-15T18:37:25.384Z,99396.28
2022-12-15T18:39:53.164Z,99397.06
2022-12-15T18:42:21.697Z,99398.69
2022-12-15T18:44:51.479Z,99394.25
2022-12-15T18:47:21.817Z,99376.78
2022-12-15T18:49:50.722Z,99377.97
2022-12-15T18:52:21.082Z,99370.03
2022-12-15T18:54:50.322Z,99373.25
2022-12-15T18:57:28.055Z,99371.03
2022-12-15T19:00:01.302Z,99373.47
2022-12-15T19:02:29.627Z,99368.69
2022-12-15T19:04:57.612Z,99369.88
2022-12-15T19:07:25.663Z,99372.72
2022-12-15T19:09:53.825Z,99378.81
2022-12-15T19:12:23.020Z,99381.25
2022-12-15T19:14:51.855Z,99385.25
2022-12-15T19:17:40.057Z,99382.13
2022-12-15T19:20:35.797Z,99382.91
2022-12-15T19:23:23.234Z,99388.34
2022-12-15T19:25:51.906Z,99393.75
2022-12-15T19:28:24.024Z,99388.84
2022-12-15T19:30:52.348Z,99379.06
2022-12-15T19:33:20.899Z,99370.91
2022-12-15T19:35:51.201Z,99378.34
2022-12-15T19:38:25.285Z,99376.63
2022-12-15T19:40:54.804Z,99382.09
2022-12-15T19:43:25.735Z,99380.72
2022-12-15T19:45:54.887Z,99389.19
2022-12-15T19:48:24.571Z,99386.88
2022-12-15T19:50:54.647Z,99364.91
2022-12-15T19:53:25.916Z,99340.16
2022-12-15T19:56:01.986Z,99328.66
2022-12-15T19:58:33.519Z,99325.84
2022-12-15T20:01:10.944Z,99307.31
2022-12-15T20:03:39.403Z,99300.03
2022-12-15T20:06:14.956Z,99300.37
2022-12-15T20:08:46.402Z,99303.88
2022-12-15T20:11:26.134Z,99296.94
2022-12-15T20:13:56.642Z,99287.66
2022-12-15T20:16:25.325Z,99294.56
2022-12-15T20:18:55.477Z,99303.88
2022-12-15T20:21:29.589Z,99303.69
2022-12-15T20:24:05.307Z,99321.78
2022-12-15T20:26:34.669Z,99309.56
2022-12-15T20:29:05.497Z,99310.94
2022-12-15T20:31:34.260Z,99296.81
2022-12-15T20:34:03.249Z,99297.44
2022-12-15T20:36:31.547Z,99291.19
2022-12-15T20:38:59.264Z,99295.00
2022-12-15T20:41:29.136Z,99274.41
2022-12-15T20:43:58.999Z,99272.53
2022-12-15T20:46:38.863Z,99281.12
2022-12-15T20:49:19.857Z,99278.53
2022-12-15T20:51:48.886Z,99278.38
2022-12-15T20:54:22.275Z,99271.19
2022-12-15T20:56:51.006Z,99276.81
2022-12-15T20:59:18.915Z,99286.56
2022-12-15T21:01:47.001Z,99292.06
2022-12-15T21:04:26.250Z,99304.53
2022-12-15T21:06:55.238Z,99286.47
2022-12-15T21:09:23.883Z,99286.97
2022-12-15T21:11:52.660Z,99277.31
2022-12-15T21:14:23.870Z,99282.06
2022-12-15T21:16:51.870Z,99285.25
2022-12-15T21:19:21.306Z,99278.09
2022-12-15T21:21:52.143Z,99269.63
2022-12-15T21:24:23.902Z,99269.34
2022-12-15T21:26:52.294Z,99263.91
2022-12-15T21:29:22.353Z,99262.28
2022-12-15T21:31:49.809Z,99247.78
2022-12-15T21:34:17.168Z,99238.16
2022-12-15T21:36:47.295Z,99243.81
2022-12-15T21:39:29.533Z,99240.41
2022-12-15T21:42:12.176Z,99241.66
2022-12-15T21:44:39.573Z,99245.06
2022-12-15T21:47:52.077Z,99239.03
2022-12-15T21:50:19.736Z,99233.09
2022-12-15T21:52:47.886Z,99220.53
2022-12-15T21:55:16.956Z,99223.66
2022-12-15T21:57:44.852Z,99233.19
2022-12-15T22:00:15.000Z,99215.87
2022-12-15T22:02:43.295Z,99225.41
2022-12-15T22:05:22.681Z,99224.50
2022-12-15T22:07:50.703Z,99217.66
2022-12-15T22:10:19.313Z,99223.28
2022-12-15T22:12:57.466Z,99213.53
2022-12-15T22:15:28.940Z,99217.81
2022-12-15T22:17:56.385Z,99207.81
2022-12-15T22:20:24.584Z,99206.09
2022-12-15T22:22:52.278Z,99204.25
2022-12-15T22:25:26.091Z,99193.75
2022-12-15T22:27:54.847Z,99193.63
2022-12-15T22:30:24.273Z,99185.47
2022-12-15T22:32:52.454Z,99176.88
2022-12-15T22:35:23.870Z,99177.00
2022-12-15T22:37:53.934Z,99177.69
2022-12-15T22:40:23.718Z,99163.47
2022-12-15T22:42:54.961Z,99172.75
2022-12-15T22:45:24.107Z,99169.63
2022-12-15T22:47:52.452Z,99168.44
2022-12-15T22:50:23.647Z,99164.59
2022-12-15T22:52:52.029Z,99172.22
2022-12-15T22:55:20.904Z,99169.28
2022-12-15T22:57:59.895Z,99165.59
2022-12-15T23:00:27.635Z,99172.88
2022-12-15T23:02:55.238Z,99174.00
2022-12-15T23:05:22.788Z,99160.78
2022-12-15T23:07:50.596Z,99167.50
2022-12-15T23:10:38.818Z,99161.25
2022-12-15T23:13:06.701Z,99151.41
2022-12-15T23:15:52.666Z,99146.94
2022-12-15T23:18:22.322Z,99145.47
2022-12-15T23:20:51.592Z,99149.44
2022-12-15T23:23:19.611Z,99144.69
2022-12-15T23:25:47.275Z,99139.47
2022-12-15T23:28:14.649Z,99129.34
2022-12-15T23:30:42.276Z,99130.44
2022-12-15T23:33:09.926Z,99129.25
2022-12-15T23:35:40.643Z,99127.41
2022-12-15T23:38:07.993Z,99119.09
2022-12-15T23:40:36.282Z,99114.16
2022-12-15T23:43:03.672Z,99119.69
2022-12-15T23:45:31.056Z,99117.00
2022-12-15T23:47:58.710Z,99112.94
2022-12-15T23:50:26.094Z,99108.44
2022-12-15T23:52:53.437Z,99106.72
2022-12-15T23:55:22.376Z,99110.56
2022-12-15T23:57:50.561Z,99107.94
